sensor_id;sensor_type;location;lat;lon;timestamp;pressure;altitude;pressure_sealevel;temperature;humidity
11345;BME280;5727;42.600;23.028;2022-07-29T00:01:22;93879.50;;;18.57;100.00
11345;BME280;5727;42.600;23.028;2022-07-29T00:03:49;93880.19;;;18.43;100.00
11345;BME280;5727;42.600;23.028;2022-07-29T00:06:16;93886.69;;;18.53;100.00
11345;BME280;5727;42.600;23.028;2022-07-29T00:08:43;93884.41;;;18.55;100.00
11345;BME280;5727;42.600;23.028;2022-07-29T00:11:10;93894.22;;;18.44;100.00
11345;BME280;5727;42.600;23.028;2022-07-29T00:13:36;93888.78;;;18.33;100.00
11345;BME280;5727;42.600;23.028;2022-07-29T00:16:03;93878.69;;;18.46;100.00
11345;BME280;5727;42.600;23.028;2022-07-29T00:18:31;93882.91;;;18.54;100.00
11345;BME280;5727;42.600;23.028;2022-07-29T00:20:58;93876.84;;;18.57;100.00
11345;BME280;5727;42.600;23.028;2022-07-29T00:23:25;93868.91;;;18.60;100.00
11345;BME280;5727;42.600;23.028;2022-07-29T00:25:52;93871.59;;;18.67;100.00
11345;BME280;5727;42.600;23.028;2022-07-29T00:28:18;93877.34;;;18.73;100.00
11345;BME280;5727;42.600;23.028;2022-07-29T00:30:45;93872.03;;;18.76;100.00
11345;BME280;5727;42.600;23.028;2022-07-29T00:33:12;93868.22;;;18.77;100.00
11345;BME280;5727;42.600;23.028;2022-07-29T00:35:40;93872.81;;;18.77;100.00
11345;BME280;5727;42.600;23.028;2022-07-29T00:38:09;93869.41;;;18.83;100.00
11345;BME280;5727;42.600;23.028;2022-07-29T00:40:36;93862.97;;;18.84;100.00
11345;BME280;5727;42.600;23.028;2022-07-29T00:43:03;93864.84;;;18.84;100.00
11345;BME280;5727;42.600;23.028;2022-07-29T00:45:29;93856.53;;;18.89;100.00
11345;BME280;5727;42.600;23.028;2022-07-29T00:47:56;93845.91;;;18.89;100.00
11345;BME280;5727;42.600;23.028;2022-07-29T00:50:23;93844.81;;;18.93;100.00
11345;BME280;5727;42.600;23.028;2022-07-29T00:52:52;93846.69;;;18.93;100.00
11345;BME280;5727;42.600;23.028;2022-07-29T00:55:19;93835.69;;;18.94;100.00
11345;BME280;5727;42.600;23.028;2022-07-29T00:57:46;93836.44;;;18.95;100.00
11345;BME280;5727;42.600;23.028;2022-07-29T01:00:16;93831.91;;;18.99;100.00
11345;BME280;5727;42.600;23.028;2022-07-29T01:02:43;93834.94;;;18.94;100.00
11345;BME280;5727;42.600;23.028;2022-07-29T01:05:11;93834.19;;;18.97;100.00
11345;BME280;5727;42.600;23.028;2022-07-29T01:07:39;93838.38;;;18.98;100.00
11345;BME280;5727;42.600;23.028;2022-07-29T01:10:09;93830.38;;;18.91;100.00
11345;BME280;5727;42.600;23.028;2022-07-29T01:12:37;93833.41;;;18.86;100.00
11345;BME280;5727;42.600;23.028;2022-07-29T01:15:06;93832.63;;;18.82;100.00
11345;BME280;5727;42.600;23.028;2022-07-29T01:17:42;93831.09;;;18.81;100.00
11345;BME280;5727;42.600;23.028;2022-07-29T01:20:14;93823.88;;;18.81;100.00
11345;BME280;5727;42.600;23.028;2022-07-29T01:22:56;93827.31;;;18.82;100.00
11345;BME280;5727;42.600;23.028;2022-07-29T01:25:45;93829.19;;;18.78;100.00
11345;BME280;5727;42.600;23.028;2022-07-29T01:28:41;93825.03;;;18.77;100.00
11345;BME280;5727;42.600;23.028;2022-07-29T01:31:13;93827.69;;;18.84;100.00
11345;BME280;5727;42.600;23.028;2022-07-29T01:33:43;93832.25;;;18.87;100.00
11345;BME280;5727;42.600;23.028;2022-07-29T01:36:27;93833.00;;;18.84;100.00
11345;BME280;5727;42.600;23.028;2022-07-29T01:39:02;93833.31;;;18.72;100.00
11345;BME280;5727;42.600;23.028;2022-07-29T01:41:31;93829.47;;;18.59;100.00
11345;BME280;5727;42.600;23.028;2022-07-29T01:44:05;93833.66;;;18.60;100.00
11345;BME280;5727;42.600;23.028;2022-07-29T01:46:35;93838.63;;;18.65;100.00
11345;BME280;5727;42.600;23.028;2022-07-29T01:49:08;93830.66;;;18.68;100.00
11345;BME280;5727;42.600;23.028;2022-07-29T01:51:41;93828.78;;;18.76;100.00
11345;BME280;5727;42.600;23.028;2022-07-29T01:54:13;93825.75;;;18.74;100.00
11345;BME280;5727;42.600;23.028;2022-07-29T01:56:42;93829.56;;;18.76;100.00
11345;BME280;5727;42.600;23.028;2022-07-29T01:59:11;93825.75;;;18.77;100.00
11345;BME280;5727;42.600;23.028;2022-07-29T02:01:40;93826.16;;;18.76;100.00
11345;BME280;5727;42.600;23.028;2022-07-29T02:04:10;93820.81;;;18.72;100.00
11345;BME280;5727;42.600;23.028;2022-07-29T02:06:40;93818.19;;;18.76;100.00
11345;BME280;5727;42.600;23.028;2022-07-29T02:09:10;93820.81;;;18.72;100.00
11345;BME280;5727;42.600;23.028;2022-07-29T02:11:39;93811.72;;;18.70;100.00
11345;BME280;5727;42.600;23.028;2022-07-29T02:14:07;93812.47;;;18.74;100.00
11345;BME280;5727;42.600;23.028;2022-07-29T02:16:38;93806.81;;;18.79;100.00
11345;BME280;5727;42.600;23.028;2022-07-29T02:19:08;93810.22;;;18.83;100.00
11345;BME280;5727;42.600;23.028;2022-07-29T02:21:36;93806.47;;;18.84;100.00
11345;BME280;5727;42.600;23.028;2022-07-29T02:24:04;93808.72;;;18.82;100.00
11345;BME280;5727;42.600;23.028;2022-07-29T02:26:32;93811.38;;;18.82;100.00
11345;BME280;5727;42.600;23.028;2022-07-29T02:29:00;93805.69;;;18.80;100.00
11345;BME280;5727;42.600;23.028;2022-07-29T02:31:31;93812.13;;;18.79;100.00
11345;BME280;5727;42.600;23.028;2022-07-29T02:34:01;93803.03;;;18.76;100.00
11345;BME280;5727;42.600;23.028;2022-07-29T02:36:31;93804.13;;;18.68;100.00
11345;BME280;5727;42.600;23.028;2022-07-29T02:38:59;93795.00;;;18.66;100.00
11345;BME280;5727;42.600;23.028;2022-07-29T02:41:28;93799.94;;;18.64;100.00
11345;BME280;5727;42.600;23.028;2022-07-29T02:43:58;93792.72;;;18.57;100.00
11345;BME280;5727;42.600;23.028;2022-07-29T02:46:31;93791.91;;;18.50;100.00
11345;BME280;5727;42.600;23.028;2022-07-29T02:49:06;93789.28;;;18.50;100.00
11345;BME280;5727;42.600;23.028;2022-07-29T02:51:41;93790.38;;;18.49;100.00
11345;BME280;5727;42.600;23.028;2022-07-29T02:54:10;93788.88;;;18.48;100.00
11345;BME280;5727;42.600;23.028;2022-07-29T02:56:39;93791.13;;;18.42;100.00
11345;BME280;5727;42.600;23.028;2022-07-29T02:59:09;93794.47;;;18.39;100.00
11345;BME280;5727;42.600;23.028;2022-07-29T03:01:40;93789.94;;;18.40;100.00
11345;BME280;5727;42.600;23.028;2022-07-29T03:04:11;93798.22;;;18.27;100.00
11345;BME280;5727;42.600;23.028;2022-07-29T03:06:40;93796.31;;;18.24;100.00
11345;BME280;5727;42.600;23.028;2022-07-29T03:09:07;93806.16;;;18.24;100.00
11345;BME280;5727;42.600;23.028;2022-07-29T03:11:34;93807.31;;;18.26;100.00
11345;BME280;5727;42.600;23.028;2022-07-29T03:14:02;93805.06;;;18.28;100.00
11345;BME280;5727;42.600;23.028;2022-07-29T03:16:30;93800.88;;;18.27;100.00
11345;BME280;5727;42.600;23.028;2022-07-29T03:18:58;93811.44;;;18.20;100.00
11345;BME280;5727;42.600;23.028;2022-07-29T03:21:27;93809.88;;;18.12;100.00
11345;BME280;5727;42.600;23.028;2022-07-29T03:23:53;93807.06;;;17.91;100.00
11345;BME280;5727;42.600;23.028;2022-07-29T03:26:20;93818.06;;;17.93;100.00
11345;BME280;5727;42.600;23.028;2022-07-29T03:28:47;93814.25;;;17.91;100.00
11345;BME280;5727;42.600;23.028;2022-07-29T03:31:14;93820.56;;;17.72;100.00
11345;BME280;5727;42.600;23.028;2022-07-29T03:33:41;93815.66;;;17.74;100.00
11345;BME280;5727;42.600;23.028;2022-07-29T03:36:07;93819.13;;;17.82;100.00
11345;BME280;5727;42.600;23.028;2022-07-29T03:38:37;93816.16;;;17.90;100.00
11345;BME280;5727;42.600;23.028;2022-07-29T03:41:07;93814.66;;;17.93;100.00
11345;BME280;5727;42.600;23.028;2022-07-29T03:43:38;93812.28;;;17.81;100.00
11345;BME280;5727;42.600;23.028;2022-07-29T03:46:06;93818.44;;;17.88;100.00
11345;BME280;5727;42.600;23.028;2022-07-29T03:48:36;93823.00;;;17.95;100.00
11345;BME280;5727;42.600;23.028;2022-07-29T03:51:05;93821.16;;;18.02;100.00
11345;BME280;5727;42.600;23.028;2022-07-29T03:53:32;93815.13;;;18.05;100.00
11345;BME280;5727;42.600;23.028;2022-07-29T03:56:02;93821.63;;;18.11;100.00
11345;BME280;5727;42.600;23.028;2022-07-29T03:58:30;93826.97;;;18.18;100.00
11345;BME280;5727;42.600;23.028;2022-07-29T04:00:58;93827.38;;;18.24;100.00
11345;BME280;5727;42.600;23.028;2022-07-29T04:03:25;93825.50;;;18.28;100.00
11345;BME280;5727;42.600;23.028;2022-07-29T04:05:59;93827.41;;;18.35;100.00
11345;BME280;5727;42.600;23.028;2022-07-29T04:08:26;93836.16;;;18.39;100.00
11345;BME280;5727;42.600;23.028;2022-07-29T04:10:52;93834.66;;;18.38;100.00
11345;BME280;5727;42.600;23.028;2022-07-29T04:13:21;93828.41;;;18.09;100.00
11345;BME280;5727;42.600;23.028;2022-07-29T04:15:47;93829.19;;;18.13;100.00
11345;BME280;5727;42.600;23.028;2022-07-29T04:18:14;93824.59;;;18.06;100.00
11345;BME280;5727;42.600;23.028;2022-07-29T04:20:41;93828.81;;;18.14;100.00
11345;BME280;5727;42.600;23.028;2022-07-29T04:23:08;93825.09;;;18.26;100.00
11345;BME280;5727;42.600;23.028;2022-07-29T04:25:37;93831.59;;;18.36;100.00
11345;BME280;5727;42.600;23.028;2022-07-29T04:28:04;93828.69;;;18.48;100.00
11345;BME280;5727;42.600;23.028;2022-07-29T04:30:33;93837.44;;;18.59;100.00
11345;BME280;5727;42.600;23.028;2022-07-29T04:33:01;93843.53;;;18.66;100.00
11345;BME280;5727;42.600;23.028;2022-07-29T04:35:28;93831.06;;;18.74;100.00
11345;BME280;5727;42.600;23.028;2022-07-29T04:37:55;93840.19;;;18.80;100.00
11345;BME280;5727;42.600;23.028;2022-07-29T04:40:22;93836.06;;;18.86;100.00
11345;BME280;5727;42.600;23.028;2022-07-29T04:42:49;93839.44;;;18.79;100.00
11345;BME280;5727;42.600;23.028;2022-07-29T04:45:15;93842.13;;;18.86;100.00
11345;BME280;5727;42.600;23.028;2022-07-29T04:47:43;93832.69;;;18.96;100.00
11345;BME280;5727;42.600;23.028;2022-07-29T04:50:10;93838.78;;;19.03;100.00
11345;BME280;5727;42.600;23.028;2022-07-29T04:52:37;93842.59;;;19.13;100.00
11345;BME280;5727;42.600;23.028;2022-07-29T04:55:05;93845.25;;;19.16;100.00
11345;BME280;5727;42.600;23.028;2022-07-29T04:57:32;93839.94;;;19.24;100.00
11345;BME280;5727;42.600;23.028;2022-07-29T04:59:59;93840.72;;;19.31;100.00
11345;BME280;5727;42.600;23.028;2022-07-29T05:02:25;93843.44;;;19.38;100.00
11345;BME280;5727;42.600;23.028;2022-07-29T05:04:53;93843.84;;;19.40;100.00
11345;BME280;5727;42.600;23.028;2022-07-29T05:07:20;93838.06;;;19.31;100.00
11345;BME280;5727;42.600;23.028;2022-07-29T05:09:47;93846.84;;;19.42;100.00
11345;BME280;5727;42.600;23.028;2022-07-29T05:12:13;93844.59;;;19.51;100.00
11345;BME280;5727;42.600;23.028;2022-07-29T05:14:40;93849.91;;;19.58;100.00
11345;BME280;5727;42.600;23.028;2022-07-29T05:17:07;93844.59;;;19.58;100.00
11345;BME280;5727;42.600;23.028;2022-07-29T05:19:34;93851.84;;;19.65;100.00
11345;BME280;5727;42.600;23.028;2022-07-29T05:22:02;93852.56;;;19.65;100.00
11345;BME280;5727;42.600;23.028;2022-07-29T05:24:29;93855.63;;;19.67;100.00
11345;BME280;5727;42.600;23.028;2022-07-29T05:26:55;93850.72;;;19.73;100.00
11345;BME280;5727;42.600;23.028;2022-07-29T05:29:22;93842.34;;;19.85;100.00
11345;BME280;5727;42.600;23.028;2022-07-29T05:31:49;93856.03;;;19.94;100.00
11345;BME280;5727;42.600;23.028;2022-07-29T05:34:18;93858.69;;;20.04;100.00
11345;BME280;5727;42.600;23.028;2022-07-29T05:36:44;93856.78;;;20.12;100.00
11345;BME280;5727;42.600;23.028;2022-07-29T05:39:13;93857.16;;;20.18;100.00
11345;BME280;5727;42.600;23.028;2022-07-29T05:41:39;93857.94;;;20.22;100.00
11345;BME280;5727;42.600;23.028;2022-07-29T05:44:07;93862.13;;;20.30;100.00
11345;BME280;5727;42.600;23.028;2022-07-29T05:46:40;93859.44;;;20.33;100.00
11345;BME280;5727;42.600;23.028;2022-07-29T05:49:07;93860.94;;;20.45;100.00
11345;BME280;5727;42.600;23.028;2022-07-29T05:51:33;93863.22;;;20.53;100.00
11345;BME280;5727;42.600;23.028;2022-07-29T05:54:00;93860.56;;;20.57;100.00
11345;BME280;5727;42.600;23.028;2022-07-29T05:56:29;93868.88;;;20.66;100.00
11345;BME280;5727;42.600;23.028;2022-07-29T05:58:56;93867.75;;;20.67;100.00
11345;BME280;5727;42.600;23.028;2022-07-29T06:01:22;93864.31;;;20.70;100.00
11345;BME280;5727;42.600;23.028;2022-07-29T06:03:49;93868.09;;;20.76;100.00
11345;BME280;5727;42.600;23.028;2022-07-29T06:06:16;93869.19;;;20.89;100.00
11345;BME280;5727;42.600;23.028;2022-07-29T06:08:43;93862.38;;;20.88;100.00
11345;BME280;5727;42.600;23.028;2022-07-29T06:11:09;93857.75;;;20.99;100.00
11345;BME280;5727;42.600;23.028;2022-07-29T06:13:37;93867.63;;;21.06;100.00
11345;BME280;5727;42.600;23.028;2022-07-29T06:16:04;93865.38;;;21.04;100.00
11345;BME280;5727;42.600;23.028;2022-07-29T06:18:31;93859.63;;;21.16;100.00
11345;BME280;5727;42.600;23.028;2022-07-29T06:20:58;93859.56;;;21.27;100.00
11345;BME280;5727;42.600;23.028;2022-07-29T06:23:25;93856.84;;;21.37;100.00
11345;BME280;5727;42.600;23.028;2022-07-29T06:25:51;93850.69;;;21.47;100.00
11345;BME280;5727;42.600;23.028;2022-07-29T06:28:18;93849.50;;;21.59;100.00
11345;BME280;5727;42.600;23.028;2022-07-29T06:30:46;93855.91;;;21.68;100.00
11345;BME280;5727;42.600;23.028;2022-07-29T06:33:16;93860.03;;;21.80;100.00
11345;BME280;5727;42.600;23.028;2022-07-29T06:35:43;93862.25;;;21.89;100.00
11345;BME280;5727;42.600;23.028;2022-07-29T06:38:12;93863.34;;;21.95;100.00
11345;BME280;5727;42.600;23.028;2022-07-29T06:40:41;93863.28;;;22.02;100.00
11345;BME280;5727;42.600;23.028;2022-07-29T06:43:26;93863.97;;;22.13;100.00
11345;BME280;5727;42.600;23.028;2022-07-29T06:45:58;93866.22;;;22.18;100.00
11345;BME280;5727;42.600;23.028;2022-07-29T06:48:26;93865.19;;;22.05;100.00
11345;BME280;5727;42.600;23.028;2022-07-29T06:50:53;93861.03;;;22.00;100.00
11345;BME280;5727;42.600;23.028;2022-07-29T06:53:20;93870.09;;;22.10;100.00
11345;BME280;5727;42.600;23.028;2022-07-29T06:55:47;93870.53;;;22.05;100.00
11345;BME280;5727;42.600;23.028;2022-07-29T06:58:14;93868.63;;;22.05;100.00
11345;BME280;5727;42.600;23.028;2022-07-29T07:00:43;93872.31;;;22.18;100.00
11345;BME280;5727;42.600;23.028;2022-07-29T07:03:11;93872.28;;;22.22;100.00
11345;BME280;5727;42.600;23.028;2022-07-29T07:05:38;93870.44;;;22.15;100.00
11345;BME280;5727;42.600;23.028;2022-07-29T07:08:05;93868.97;;;22.11;100.00
11345;BME280;5727;42.600;23.028;2022-07-29T07:10:32;93871.50;;;22.25;100.00
11345;BME280;5727;42.600;23.028;2022-07-29T07:12:59;93866.91;;;22.25;100.00
11345;BME280;5727;42.600;23.028;2022-07-29T07:15:26;93863.47;;;22.25;100.00
11345;BME280;5727;42.600;23.028;2022-07-29T07:17:53;93867.13;;;22.45;100.00
11345;BME280;5727;42.600;23.028;2022-07-29T07:20:21;93861.34;;;22.50;100.00
11345;BME280;5727;42.600;23.028;2022-07-29T07:22:48;93860.94;;;22.55;100.00
11345;BME280;5727;42.600;23.028;2022-07-29T07:25:15;93857.50;;;22.58;100.00
11345;BME280;5727;42.600;23.028;2022-07-29T07:27:42;93863.47;;;22.69;100.00
11345;BME280;5727;42.600;23.028;2022-07-29T07:30:10;93863.41;;;22.76;100.00
11345;BME280;5727;42.600;23.028;2022-07-29T07:32:37;93858.34;;;22.85;100.00
11345;BME280;5727;42.600;23.028;2022-07-29T07:35:05;93856.94;;;23.07;100.00
11345;BME280;5727;42.600;23.028;2022-07-29T07:37:34;93858.19;;;23.29;100.00
11345;BME280;5727;42.600;23.028;2022-07-29T07:40:02;93862.75;;;23.32;100.00
11345;BME280;5727;42.600;23.028;2022-07-29T07:42:29;93861.09;;;23.45;100.00
11345;BME280;5727;42.600;23.028;2022-07-29T07:44:56;93857.84;;;23.57;100.00
11345;BME280;5727;42.600;23.028;2022-07-29T07:47:23;93859.63;;;23.68;100.00
11345;BME280;5727;42.600;23.028;2022-07-29T07:49:50;93857.84;;;23.84;100.00
11345;BME280;5727;42.600;23.028;2022-07-29T07:52:18;93861.28;;;23.85;99.43
11345;BME280;5727;42.600;23.028;2022-07-29T07:54:47;93862.03;;;23.85;99.33
11345;BME280;5727;42.600;23.028;2022-07-29T07:57:14;93855.88;;;23.88;99.59
11345;BME280;5727;42.600;23.028;2022-07-29T07:59:42;93864.31;;;23.87;99.98
11345;BME280;5727;42.600;23.028;2022-07-29T08:02:09;93864.25;;;23.90;99.91
11345;BME280;5727;42.600;23.028;2022-07-29T08:04:35;93857.16;;;24.07;100.00
11345;BME280;5727;42.600;23.028;2022-07-29T08:07:03;93857.97;;;24.27;99.71
11345;BME280;5727;42.600;23.028;2022-07-29T08:09:29;93863.31;;;24.50;96.61
11345;BME280;5727;42.600;23.028;2022-07-29T08:11:58;93867.25;;;24.65;96.47
11345;BME280;5727;42.600;23.028;2022-07-29T08:14:27;93862.72;;;24.85;94.61
11345;BME280;5727;42.600;23.028;2022-07-29T08:16:54;93864.91;;;24.90;96.16
11345;BME280;5727;42.600;23.028;2022-07-29T08:19:21;93866.13;;;25.05;92.59
11345;BME280;5727;42.600;23.028;2022-07-29T08:21:47;93865.88;;;25.19;90.54
11345;BME280;5727;42.600;23.028;2022-07-29T08:24:14;93869.94;;;25.08;88.39
11345;BME280;5727;42.600;23.028;2022-07-29T08:26:59;93864.91;;;24.90;88.42
11345;BME280;5727;42.600;23.028;2022-07-29T08:29:26;93854.06;;;24.97;89.58
11345;BME280;5727;42.600;23.028;2022-07-29T08:31:55;93852.28;;;25.10;89.20
11345;BME280;5727;42.600;23.028;2022-07-29T08:34:21;93851.50;;;25.10;89.10
11345;BME280;5727;42.600;23.028;2022-07-29T08:36:48;93849.94;;;25.12;89.84
11345;BME280;5727;42.600;23.028;2022-07-29T08:39:15;93849.72;;;25.23;88.85
11345;BME280;5727;42.600;23.028;2022-07-29T08:41:42;93848.25;;;25.38;89.58
11345;BME280;5727;42.600;23.028;2022-07-29T08:44:10;93846.75;;;25.57;87.58
11345;BME280;5727;42.600;23.028;2022-07-29T08:46:37;93846.34;;;25.74;87.66
11345;BME280;5727;42.600;23.028;2022-07-29T08:49:05;93840.81;;;25.81;85.76
11345;BME280;5727;42.600;23.028;2022-07-29T08:51:33;93846.69;;;25.92;84.70
11345;BME280;5727;42.600;23.028;2022-07-29T08:54:02;93844.16;;;26.01;84.12
11345;BME280;5727;42.600;23.028;2022-07-29T08:56:29;93836.06;;;26.05;84.22
11345;BME280;5727;42.600;23.028;2022-07-29T08:58:57;93840.75;;;26.17;83.37
11345;BME280;5727;42.600;23.028;2022-07-29T09:01:29;93841.59;;;26.30;83.59
11345;BME280;5727;42.600;23.028;2022-07-29T09:03:56;93842.25;;;26.34;83.02
11345;BME280;5727;42.600;23.028;2022-07-29T09:06:24;93845.44;;;26.45;80.40
11345;BME280;5727;42.600;23.028;2022-07-29T09:08:53;93833.84;;;26.48;80.59
11345;BME280;5727;42.600;23.028;2022-07-29T09:11:21;93846.59;;;26.60;79.93
11345;BME280;5727;42.600;23.028;2022-07-29T09:13:48;93839.47;;;26.70;78.13
11345;BME280;5727;42.600;23.028;2022-07-29T09:16:15;93828.66;;;26.86;78.84
11345;BME280;5727;42.600;23.028;2022-07-29T09:18:44;93836.63;;;26.89;77.76
11345;BME280;5727;42.600;23.028;2022-07-29T09:21:12;93829.03;;;27.00;77.20
11345;BME280;5727;42.600;23.028;2022-07-29T09:24:05;93833.22;;;27.01;72.44
11345;BME280;5727;42.600;23.028;2022-07-29T09:26:33;93832.56;;;26.97;73.44
11345;BME280;5727;42.600;23.028;2022-07-29T09:29:08;93835.53;;;27.15;73.20
11345;BME280;5727;42.600;23.028;2022-07-29T09:31:36;93821.19;;;27.18;75.57
11345;BME280;5727;42.600;23.028;2022-07-29T09:34:05;93824.69;;;27.32;75.55
11345;BME280;5727;42.600;23.028;2022-07-29T09:36:39;93828.19;;;27.45;75.79
11345;BME280;5727;42.600;23.028;2022-07-29T09:39:06;93829.38;;;27.56;73.37
11345;BME280;5727;42.600;23.028;2022-07-29T09:41:44;93821.28;;;27.69;72.19
11345;BME280;5727;42.600;23.028;2022-07-29T09:44:11;93818.72;;;27.78;72.76
11345;BME280;5727;42.600;23.028;2022-07-29T09:46:40;93819.25;;;27.73;71.76
11345;BME280;5727;42.600;23.028;2022-07-29T09:49:09;93810.75;;;27.87;72.07
11345;BME280;5727;42.600;23.028;2022-07-29T09:51:37;93811.50;;;27.87;70.67
11345;BME280;5727;42.600;23.028;2022-07-29T09:54:21;93806.13;;;27.87;72.21
11345;BME280;5727;42.600;23.028;2022-07-29T09:56:48;93803.63;;;27.93;69.42
11345;BME280;5727;42.600;23.028;2022-07-29T09:59:16;93801.34;;;27.91;69.54
11345;BME280;5727;42.600;23.028;2022-07-29T10:01:42;93801.94;;;27.99;69.05
11345;BME280;5727;42.600;23.028;2022-07-29T10:04:11;93791.78;;;28.03;70.84
11345;BME280;5727;42.600;23.028;2022-07-29T10:06:55;93784.53;;;28.13;71.31
11345;BME280;5727;42.600;23.028;2022-07-29T10:09:23;93787.47;;;28.06;70.68
11345;BME280;5727;42.600;23.028;2022-07-29T10:12:05;93781.44;;;28.14;70.59
11345;BME280;5727;42.600;23.028;2022-07-29T10:14:32;93776.88;;;28.24;69.83
11345;BME280;5727;42.600;23.028;2022-07-29T10:17:00;93776.19;;;28.32;68.17
11345;BME280;5727;42.600;23.028;2022-07-29T10:19:30;93776.81;;;28.36;67.66
11345;BME280;5727;42.600;23.028;2022-07-29T10:21:58;93768.50;;;28.43;68.95
11345;BME280;5727;42.600;23.028;2022-07-29T10:24:26;93764.94;;;28.46;69.82
11345;BME280;5727;42.600;23.028;2022-07-29T10:26:54;93766.09;;;28.58;67.24
11345;BME280;5727;42.600;23.028;2022-07-29T10:29:21;93761.78;;;28.60;65.88
11345;BME280;5727;42.600;23.028;2022-07-29T10:31:53;93755.00;;;28.77;68.64
11345;BME280;5727;42.600;23.028;2022-07-29T10:34:34;93755.69;;;28.69;65.28
11345;BME280;5727;42.600;23.028;2022-07-29T10:37:08;93752.09;;;28.50;66.15
11345;BME280;5727;42.600;23.028;2022-07-29T10:39:51;93742.91;;;28.60;66.08
11345;BME280;5727;42.600;23.028;2022-07-29T10:42:23;93752.81;;;28.63;65.40
11345;BME280;5727;42.600;23.028;2022-07-29T10:44:52;93745.34;;;28.67;63.15
11345;BME280;5727;42.600;23.028;2022-07-29T10:47:20;93749.63;;;28.77;63.64
11345;BME280;5727;42.600;23.028;2022-07-29T10:49:59;93730.75;;;28.77;65.41
11345;BME280;5727;42.600;23.028;2022-07-29T10:52:53;93738.63;;;28.93;65.23
11345;BME280;5727;42.600;23.028;2022-07-29T10:55:32;93728.59;;;28.94;62.53
11345;BME280;5727;42.600;23.028;2022-07-29T10:58:13;93730.09;;;28.95;63.14
11345;BME280;5727;42.600;23.028;2022-07-29T11:00:40;93732.41;;;29.06;64.74
11345;BME280;5727;42.600;23.028;2022-07-29T11:03:07;93718.84;;;29.18;65.49
11345;BME280;5727;42.600;23.028;2022-07-29T11:05:56;93723.25;;;29.34;62.63
11345;BME280;5727;42.600;23.028;2022-07-29T11:08:24;93712.94;;;29.41;61.57
11345;BME280;5727;42.600;23.028;2022-07-29T11:10:53;93717.66;;;29.59;63.50
11345;BME280;5727;42.600;23.028;2022-07-29T11:13:48;93718.31;;;29.72;60.85
11345;BME280;5727;42.600;23.028;2022-07-29T11:16:16;93714.47;;;29.91;62.96
11345;BME280;5727;42.600;23.028;2022-07-29T11:19:21;93711.00;;;29.91;58.91
11345;BME280;5727;42.600;23.028;2022-07-29T11:21:49;93707.59;;;30.08;57.21
11345;BME280;5727;42.600;23.028;2022-07-29T11:24:19;93711.94;;;30.24;60.05
11345;BME280;5727;42.600;23.028;2022-07-29T11:27:07;93706.56;;;30.33;57.91
11345;BME280;5727;42.600;23.028;2022-07-29T11:29:35;93704.91;;;30.53;58.82
11345;BME280;5727;42.600;23.028;2022-07-29T11:32:09;93702.78;;;30.57;55.31
11345;BME280;5727;42.600;23.028;2022-07-29T11:34:37;93698.84;;;30.95;55.05
11345;BME280;5727;42.600;23.028;2022-07-29T11:37:20;93697.72;;;31.19;55.39
11345;BME280;5727;42.600;23.028;2022-07-29T11:40:10;93691.06;;;31.29;55.32
11345;BME280;5727;42.600;23.028;2022-07-29T11:42:42;93697.34;;;31.44;52.66
11345;BME280;5727;42.600;23.028;2022-07-29T11:45:10;93686.28;;;31.57;54.16
11345;BME280;5727;42.600;23.028;2022-07-29T11:47:40;93683.13;;;32.29;50.83
11345;BME280;5727;42.600;23.028;2022-07-29T11:50:10;93682.19;;;34.59;43.37
11345;BME280;5727;42.600;23.028;2022-07-29T11:52:40;93687.13;;;35.06;40.25
11345;BME280;5727;42.600;23.028;2022-07-29T11:55:12;93675.91;;;36.73;37.81
11345;BME280;5727;42.600;23.028;2022-07-29T11:57:46;93682.53;;;38.79;32.91
11345;BME280;5727;42.600;23.028;2022-07-29T12:00:25;93683.28;;;40.22;30.31
11345;BME280;5727;42.600;23.028;2022-07-29T12:02:53;93676.81;;;40.62;28.45
11345;BME280;5727;42.600;23.028;2022-07-29T12:05:20;93675.63;;;40.95;27.74
11345;BME280;5727;42.600;23.028;2022-07-29T12:07:48;93676.41;;;40.71;28.09
11345;BME280;5727;42.600;23.028;2022-07-29T12:10:15;93675.69;;;38.50;29.87
11345;BME280;5727;42.600;23.028;2022-07-29T12:12:42;93674.72;;;37.18;31.69
11345;BME280;5727;42.600;23.028;2022-07-29T12:15:18;93675.91;;;36.03;33.64
11345;BME280;5727;42.600;23.028;2022-07-29T12:17:46;93675.16;;;34.98;36.60
11345;BME280;5727;42.600;23.028;2022-07-29T12:20:13;93669.69;;;34.47;37.27
11345;BME280;5727;42.600;23.028;2022-07-29T12:35:59;93661.06;;;37.18;30.99
11345;BME280;5727;42.600;23.028;2022-07-29T12:38:27;93653.50;;;38.59;29.00
11345;BME280;5727;42.600;23.028;2022-07-29T12:40:54;93659.09;;;39.18;27.27
11345;BME280;5727;42.600;23.028;2022-07-29T12:43:22;93655.66;;;39.12;27.75
11345;BME280;5727;42.600;23.028;2022-07-29T12:45:51;93655.50;;;39.83;27.04
11345;BME280;5727;42.600;23.028;2022-07-29T12:48:33;93651.47;;;39.36;27.18
11345;BME280;5727;42.600;23.028;2022-07-29T12:51:03;93650.50;;;38.57;28.72
11345;BME280;5727;42.600;23.028;2022-07-29T12:53:31;93645.38;;;37.57;28.56
11345;BME280;5727;42.600;23.028;2022-07-29T12:55:59;93641.19;;;37.07;30.06
11345;BME280;5727;42.600;23.028;2022-07-29T12:58:32;93638.69;;;37.53;29.38
11345;BME280;5727;42.600;23.028;2022-07-29T13:01:10;93633.50;;;37.33;28.82
11345;BME280;5727;42.600;23.028;2022-07-29T13:03:46;93629.19;;;36.54;30.53
11345;BME280;5727;42.600;23.028;2022-07-29T13:06:36;93629.31;;;35.64;32.51
11345;BME280;5727;42.600;23.028;2022-07-29T13:09:05;93631.31;;;35.27;33.57
11345;BME280;5727;42.600;23.028;2022-07-29T13:11:34;93626.34;;;34.94;35.16
11345;BME280;5727;42.600;23.028;2022-07-29T13:14:30;93621.72;;;34.75;35.36
11345;BME280;5727;42.600;23.028;2022-07-29T13:17:02;93622.19;;;35.72;34.00
11345;BME280;5727;42.600;23.028;2022-07-29T13:19:37;93619.84;;;37.05;30.52
11345;BME280;5727;42.600;23.028;2022-07-29T13:22:07;93612.47;;;38.02;28.82